• Join FlightAware (Why Join?)
  • Login
  • US Flag 
11:51AM EDT


 

Airport Tracker/Info


-or-


 

Live Flight TrackerFlight Track Log ✈ N960DL ✈ 01-May-2013 ✈ KSTL - KATL

Flight Track Log - Related Links

Times and Time Zones

All times are in EDT time to prevent confusion due to time zone crossing. See the N960DL flight status page for this flight to view local times or setup timezone preferences in your user account.

Time Position Orientation Groundspeed Altitude Reporting Facility
EDT Latitude Longitude Course Direction KTS MPH feet Rate Location/Type
01:56PM 38.7333 -90.3333 130° Southeast 154 177 1,700  Level Gateway (St. Louis) TRACON
01:56PM 38.7000 -90.2667 123° Southeast 236 272 2,700 1,560 Climbing Gateway (St. Louis) TRACON
01:57PM 38.6828 -90.2436 134° Southeast 264 304 3,900 2,880 Climbing Kansas City Center
01:58PM 38.5277 -90.0883 132° Southeast  Level Estimated
01:58PM 38.6364 -90.1703 129° Southeast 263 303 7,100  Level Kansas City Center
01:59PM 38.4538 -89.9948 127° Southeast  Level Estimated
01:59PM 38.5806 -90.0878 131° Southeast 268 308 10,400  Level Kansas City Center
02:00PM 38.4103 -89.8743 115° Southeast  Level FlightAware Approximate
02:00PM 38.5319 -90.0158 131° Southeast 294 338 11,400  Level Kansas City Center
02:01PM 38.3359 -89.7816 130° Southeast  Level Estimated
02:01PM 38.4669 -89.9139 129° Southeast 357 411 13,200  Level Kansas City Center
02:02PM 38.3808 -89.7864 131° Southeast 389 448 16,200 2,460 Climbing Kansas City Center
02:03PM 38.3042 -89.6681 130° Southeast 412 474 18,300 1,980 Climbing Kansas City Center
02:04PM 38.2264 -89.5553 131° Southeast 425 489 20,300 1,920 Climbing Kansas City Center
02:05PM 38.1397 -89.4317 132° Southeast 436 502 22,300 1,620 Climbing Kansas City Center
02:06PM 38.0572 -89.3136 132° Southeast 447 514 23,700 1,680 Climbing Kansas City Center
02:07PM 37.9661 -89.1842 132° Southeast 456 525 25,800 1,560 Climbing Kansas City Center
02:08PM 37.8817 -89.0639 132° Southeast 460 529 27,000 1,260 Climbing Kansas City Center
02:09PM 37.7972 -88.9450 132° Southeast 468 539 28,500 1,500 Climbing Kansas City Center
02:10PM 37.7119 -88.8222 131° Southeast 464 534 30,100 1,620 Climbing Kansas City Center
02:11PM 37.6183 -88.6950 133° Southeast 452 520 31,900 1,320 Climbing Kansas City Center
02:12PM 37.5394 -88.5828 132° Southeast 436 502 32,900 840 Climbing Kansas City Center
02:14PM 37.4378 -88.4397 132° Southeast 448 516 33,900 840 Climbing Memphis Center
02:15PM 37.3547 -88.3244 132° Southeast 448 516 34,800 540 Climbing Memphis Center
02:16PM 37.2844 -88.2219 131° Southeast 443 510 35,000 60 Climbing Memphis Center
02:17PM 37.1906 -88.0969 133° Southeast 438 504 35,000  Level Memphis Center
02:18PM 37.1178 -87.9975 133° Southeast 447 514 35,000  Level Memphis Center
02:19PM 37.0364 -87.8856 132° Southeast 435 501 35,000  Level Memphis Center
02:20PM 36.9528 -87.7714 132° Southeast 435 501 35,000  Level Memphis Center
02:21PM 36.8733 -87.6622 132° Southeast 435 501 35,000  Level Memphis Center
02:22PM 36.7917 -87.5511 133° Southeast 435 501 35,000  Level Memphis Center
02:23PM 36.7100 -87.4428 133° Southeast 435 501 35,000  Level Memphis Center
02:24PM 36.6217 -87.3217 132° Southeast 435 501 35,000  Level Memphis Center
02:25PM 36.5397 -87.2139 133° Southeast 435 501 35,000  Level Memphis Center
02:26PM 36.4578 -87.1061 133° Southeast 435 501 35,000  Level Memphis Center
02:27PM 36.3778 -86.9958 132° Southeast 435 501 35,000  Level Memphis Center
02:28PM 36.3000 -86.8986 135° Southeast 435 501 35,000  Level Memphis Center
02:29PM 36.2156 -86.7864 133° Southeast 440 506 35,000 -840 Level Memphis Center
02:30PM 36.1375 -86.6819 133° Southeast 427 491 33,400 -1,020 Descending Memphis Center
02:31PM 36.0306 -86.5917 146° Southeast 420 483 33,000 -240 Descending Memphis Center
02:32PM 35.9300 -86.5117 147° Southeast 425 489 33,000  Level Memphis Center
02:34PM 35.7506 -86.3672 147° Southeast 438 504 33,000  Level Atlanta Center
02:35PM 35.6497 -86.2878 147° Southeast 433 498 33,000  Level Atlanta Center
02:36PM 35.5489 -86.2083 147° Southeast 433 498 33,000  Level Atlanta Center
02:37PM 35.4625 -86.1397 147° Southeast 427 491 33,000  Level Atlanta Center
02:38PM 35.3431 -86.0478 148° Southeast 427 491 33,000 -300 Level Atlanta Center
02:39PM 35.2442 -85.9689 147° Southeast 427 491 32,500 -1,260 Descending Atlanta Center
02:40PM 35.1472 -85.8906 147° Southeast 427 491 30,500 -1,680 Descending Atlanta Center
02:41PM 35.0483 -85.8097 146° Southeast 427 491 29,200 -1,200 Descending Atlanta Center
02:42PM 34.9492 -85.7342 148° Southeast 427 491 28,100 -1,080 Descending Atlanta Center
02:43PM 34.8478 -85.6686 152° Southeast 422 486 27,100 -780 Descending Atlanta Center
02:44PM 34.7433 -85.6819 186° South 377 434 26,600 -600 Descending Atlanta Center
02:45PM 34.6433 -85.6647 172° South 366 421 26,000 -660 Descending Atlanta Center
02:46PM 34.5672 -85.5825 138° Southeast 347 399 25,300 -1,140 Descending Atlanta Center
02:47PM 34.4953 -85.5006 137° Southeast 352 405 23,800 -1,740 Descending Atlanta Center
02:48PM 34.4231 -85.4164 136° Southeast 357 411 21,900 -1,860 Descending Atlanta Center
02:49PM 34.3550 -85.3397 137° Southeast 344 396 20,100 -1,620 Descending Atlanta Center
02:50PM 34.2994 -85.2708 134° Southeast 326 375 18,700 -1,560 Descending Atlanta Center
02:51PM 34.2356 -85.1997 137° Southeast 311 358 17,000 -1,740 Descending Atlanta Center
02:52PM 34.1756 -85.1311 137° Southeast 311 358 15,300 -1,740 Descending Atlanta Center
02:53PM 34.1178 -85.0600 134° Southeast 306 352 13,600 -1,200 Descending Atlanta Center
02:54PM 34.0639 -84.9942 135° Southeast 285 328 12,900 -900 Descending Atlanta Center
02:55PM 33.9847 -84.9758 169° South 269 310 11,800 -1,080 Descending Atlanta Center
02:56PM 33.9097 -84.9600 170° South 281 323 10,800 -1,140 Descending Atlanta Center
02:57PM 33.8453 -84.9467 170° South 256 295 9,600 -1,200 Descending Atlanta Center
02:58PM 33.7806 -84.9336 170° South 243 280 8,500 -840 Descending Atlanta Center
02:59PM 33.7117 -84.9203 171° South 234 269 8,000 -480 Descending Atlanta Center
03:01PM 33.6333 -84.8333 137° Southeast 216 249 7,000 -660 Descending Atlanta TRACON
03:02PM 33.6333 -84.7667 90° East 186 214 6,000 -960 Descending Atlanta TRACON
03:03PM 33.6333 -84.7000 90° East 175 201 5,100 -900 Descending Atlanta TRACON
03:04PM 33.6333 -84.6500 90° East 171 197 4,200 -900 Descending Atlanta TRACON